sensor_id;sensor_type;location;lat;lon;timestamp;pressure;altitude;pressure_sealevel;temperature;humidity
53647;BME280;39550;52.230;5.194;2023-02-19T00:03:56;101610.66;;;7.72;95.21
53647;BME280;39550;52.230;5.194;2023-02-19T00:06:23;101602.94;;;7.72;94.91
53647;BME280;39550;52.230;5.194;2023-02-19T00:08:49;101613.13;;;7.69;95.24
53647;BME280;39550;52.230;5.194;2023-02-19T00:11:17;101586.25;;;7.58;95.26
53647;BME280;39550;52.230;5.194;2023-02-19T00:13:45;101614.16;;;7.74;94.89
53647;BME280;39550;52.230;5.194;2023-02-19T00:16:14;101617.53;;;7.73;95.07
53647;BME280;39550;52.230;5.194;2023-02-19T00:18:41;101588.75;;;7.55;95.17
53647;BME280;39550;52.230;5.194;2023-02-19T00:21:06;101538.22;;;7.26;94.41
53647;BME280;39550;52.230;5.194;2023-02-19T00:23:32;101558.25;;;7.37;95.09
53647;BME280;39550;52.230;5.194;2023-02-19T00:26:06;101611.53;;;7.73;95.31
53647;BME280;39550;52.230;5.194;2023-02-19T00:28:32;101603.50;;;7.62;95.20
53647;BME280;39550;52.230;5.194;2023-02-19T00:31:08;101607.00;;;7.65;94.98
53647;BME280;39550;52.230;5.194;2023-02-19T00:33:34;101580.88;;;7.50;94.74
53647;BME280;39550;52.230;5.194;2023-02-19T00:36:04;101584.31;;;7.50;94.93
53647;BME280;39550;52.230;5.194;2023-02-19T00:38:31;101615.78;;;7.72;94.88
53647;BME280;39550;52.230;5.194;2023-02-19T00:40:59;101609.66;;;7.67;94.76
53647;BME280;39550;52.230;5.194;2023-02-19T00:43:24;101595.59;;;7.56;95.01
53647;BME280;39550;52.230;5.194;2023-02-19T00:45:50;101616.50;;;7.68;94.76
53647;BME280;39550;52.230;5.194;2023-02-19T00:48:15;101614.84;;;7.69;94.97
53647;BME280;39550;52.230;5.194;2023-02-19T00:50:41;101567.69;;;7.39;94.71
53647;BME280;39550;52.230;5.194;2023-02-19T00:53:06;101604.25;;;7.59;94.94
53647;BME280;39550;52.230;5.194;2023-02-19T00:55:31;101592.03;;;7.50;95.45
53647;BME280;39550;52.230;5.194;2023-02-19T00:57:57;101520.50;;;7.07;94.88
53647;BME280;39550;52.230;5.194;2023-02-19T01:00:22;101634.56;;;7.71;94.86
53647;BME280;39550;52.230;5.194;2023-02-19T01:02:47;101616.16;;;7.57;94.83
53647;BME280;39550;52.230;5.194;2023-02-19T01:05:13;101620.41;;;7.57;94.82
53647;BME280;39550;52.230;5.194;2023-02-19T01:07:38;101617.09;;;7.59;94.75
53647;BME280;39550;52.230;5.194;2023-02-19T01:10:04;101635.31;;;7.67;94.93
53647;BME280;39550;52.230;5.194;2023-02-19T01:12:29;101630.94;;;7.64;95.35
53647;BME280;39550;52.230;5.194;2023-02-19T01:14:56;101613.66;;;7.59;94.98
53647;BME280;39550;52.230;5.194;2023-02-19T01:17:21;101618.78;;;7.59;95.19
53647;BME280;39550;52.230;5.194;2023-02-19T01:19:46;101614.47;;;7.58;94.76
53647;BME280;39550;52.230;5.194;2023-02-19T01:22:12;101628.22;;;7.60;94.75
53647;BME280;39550;52.230;5.194;2023-02-19T01:24:37;101597.75;;;7.43;94.67
53647;BME280;39550;52.230;5.194;2023-02-19T01:27:03;101637.91;;;7.69;95.14
53647;BME280;39550;52.230;5.194;2023-02-19T01:29:28;101644.72;;;7.68;94.70
53647;BME280;39550;52.230;5.194;2023-02-19T01:31:54;101642.84;;;7.62;95.22
53647;BME280;39550;52.230;5.194;2023-02-19T01:34:19;101645.56;;;7.67;95.17
53647;BME280;39550;52.230;5.194;2023-02-19T01:36:44;101583.63;;;7.29;95.24
53647;BME280;39550;52.230;5.194;2023-02-19T01:39:10;101648.13;;;7.67;94.95
53647;BME280;39550;52.230;5.194;2023-02-19T01:41:38;101647.25;;;7.66;95.49
53647;BME280;39550;52.230;5.194;2023-02-19T01:46:43;101647.25;;;7.66;95.10
53647;BME280;39550;52.230;5.194;2023-02-19T01:49:23;101633.34;;;7.60;95.39
53647;BME280;39550;52.230;5.194;2023-02-19T01:54:50;101648.72;;;7.60;95.12
53647;BME280;39550;52.230;5.194;2023-02-19T01:57:24;101651.41;;;7.63;95.44
53647;BME280;39550;52.230;5.194;2023-02-19T01:59:57;101656.66;;;7.66;94.78
53647;BME280;39550;52.230;5.194;2023-02-19T02:02:38;101655.66;;;7.62;95.45
53647;BME280;39550;52.230;5.194;2023-02-19T02:05:18;101652.31;;;7.65;95.33
53647;BME280;39550;52.230;5.194;2023-02-19T02:07:51;101665.16;;;7.65;95.02
53647;BME280;39550;52.230;5.194;2023-02-19T02:10:39;101660.88;;;7.65;94.70
53647;BME280;39550;52.230;5.194;2023-02-19T02:13:08;101647.72;;;7.55;94.86
53647;BME280;39550;52.230;5.194;2023-02-19T02:15:44;101621.53;;;7.39;94.64
53647;BME280;39550;52.230;5.194;2023-02-19T02:18:29;101659.13;;;7.63;95.38
53647;BME280;39550;52.230;5.194;2023-02-19T02:24:56;101608.38;;;7.28;94.96
53647;BME280;39550;52.230;5.194;2023-02-19T02:27:40;101664.28;;;7.64;95.40
53647;BME280;39550;52.230;5.194;2023-02-19T02:30:49;101666.81;;;7.63;95.28
53647;BME280;39550;52.230;5.194;2023-02-19T02:34:26;101669.38;;;7.63;95.06
53647;BME280;39550;52.230;5.194;2023-02-19T02:36:45;101669.38;;;7.63;94.95
53647;BME280;39550;52.230;5.194;2023-02-19T02:39:18;101668.34;;;7.58;95.15
53647;BME280;39550;52.230;5.194;2023-02-19T02:42:03;101677.06;;;7.63;94.71
53647;BME280;39550;52.230;5.194;2023-02-19T02:44:53;101663.00;;;7.52;94.91
53647;BME280;39550;52.230;5.194;2023-02-19T02:47:58;101667.56;;;7.60;95.45
53647;BME280;39550;52.230;5.194;2023-02-19T02:50:49;101672.66;;;7.59;94.71
53647;BME280;39550;52.230;5.194;2023-02-19T02:56:36;101679.56;;;7.61;95.20
53647;BME280;39550;52.230;5.194;2023-02-19T02:59:17;101676.84;;;7.57;94.73
53647;BME280;39550;52.230;5.194;2023-02-19T03:05:10;101680.44;;;7.62;95.28
53647;BME280;39550;52.230;5.194;2023-02-19T03:08:11;101657.34;;;7.36;94.81
53647;BME280;39550;52.230;5.194;2023-02-19T03:11:08;101690.63;;;7.59;94.97
53647;BME280;39550;52.230;5.194;2023-02-19T03:14:21;101694.91;;;7.60;94.89
53647;BME280;39550;52.230;5.194;2023-02-19T03:17:46;101701.72;;;7.59;94.89
53647;BME280;39550;52.230;5.194;2023-02-19T03:20:37;101691.47;;;7.59;95.48
53647;BME280;39550;52.230;5.194;2023-02-19T03:23:22;101674.69;;;7.43;95.13
53647;BME280;39550;52.230;5.194;2023-02-19T03:26:20;101625.16;;;7.19;94.95
53647;BME280;39550;52.230;5.194;2023-02-19T03:31:56;101646.75;;;7.27;94.62
53647;BME280;39550;52.230;5.194;2023-02-19T03:34:40;101706.88;;;7.59;94.71
53647;BME280;39550;52.230;5.194;2023-02-19T03:37:36;101709.38;;;7.58;94.86
53647;BME280;39550;52.230;5.194;2023-02-19T03:40:24;101658.69;;;7.25;94.78
53647;BME280;39550;52.230;5.194;2023-02-19T03:46:59;101724.78;;;7.58;95.10
53647;BME280;39550;52.230;5.194;2023-02-19T03:50:05;101719.66;;;7.58;95.29
53647;BME280;39550;52.230;5.194;2023-02-19T03:56:17;101723.72;;;7.53;95.05
53647;BME280;39550;52.230;5.194;2023-02-19T03:58:55;101739.28;;;7.57;94.59
53647;BME280;39550;52.230;5.194;2023-02-19T04:05:02;101748.66;;;7.57;94.97
53647;BME280;39550;52.230;5.194;2023-02-19T04:07:44;101753.78;;;7.57;94.67
53647;BME280;39550;52.230;5.194;2023-02-19T04:10:43;101684.91;;;7.18;94.80
53647;BME280;39550;52.230;5.194;2023-02-19T04:13:29;101754.59;;;7.56;95.47
53647;BME280;39550;52.230;5.194;2023-02-19T04:16:25;101715.28;;;7.31;94.64
53647;BME280;39550;52.230;5.194;2023-02-19T04:19:06;101760.59;;;7.55;95.25
53647;BME280;39550;52.230;5.194;2023-02-19T04:21:41;101759.69;;;7.54;94.86
53647;BME280;39550;52.230;5.194;2023-02-19T04:24:49;101713.31;;;7.24;94.72
53647;BME280;39550;52.230;5.194;2023-02-19T04:27:29;101765.56;;;7.52;95.29
53647;BME280;39550;52.230;5.194;2023-02-19T04:30:07;101697.50;;;7.11;94.65
53647;BME280;39550;52.230;5.194;2023-02-19T04:32:53;101759.25;;;7.42;94.81
53647;BME280;39550;52.230;5.194;2023-02-19T04:35:32;101775.03;;;7.53;94.71
53647;BME280;39550;52.230;5.194;2023-02-19T04:38:04;101787.91;;;7.54;94.87
53647;BME280;39550;52.230;5.194;2023-02-19T04:40:38;101727.59;;;7.17;95.35
53647;BME280;39550;52.230;5.194;2023-02-19T04:43:32;101747.69;;;7.29;95.53
53647;BME280;39550;52.230;5.194;2023-02-19T04:46:10;101773.78;;;7.41;95.32
53647;BME280;39550;52.230;5.194;2023-02-19T04:48:50;101805.81;;;7.53;95.05
53647;BME280;39550;52.230;5.194;2023-02-19T04:51:32;101809.84;;;7.46;95.04
53647;BME280;39550;52.230;5.194;2023-02-19T04:54:13;101794.28;;;7.41;94.95
53647;BME280;39550;52.230;5.194;2023-02-19T04:56:59;101816.88;;;7.52;95.31
53647;BME280;39550;52.230;5.194;2023-02-19T04:59:35;101761.78;;;7.16;94.68
53647;BME280;39550;52.230;5.194;2023-02-19T05:02:15;101819.44;;;7.52;95.12
53647;BME280;39550;52.230;5.194;2023-02-19T05:04:54;101813.16;;;7.43;94.70
53647;BME280;39550;52.230;5.194;2023-02-19T05:07:25;101834.81;;;7.52;94.59
53647;BME280;39550;52.230;5.194;2023-02-19T05:09:59;101835.66;;;7.50;94.82
53647;BME280;39550;52.230;5.194;2023-02-19T05:12:38;101849.34;;;7.51;94.78
53647;BME280;39550;52.230;5.194;2023-02-19T05:15:14;101780.47;;;7.13;94.99
53647;BME280;39550;52.230;5.194;2023-02-19T05:18:01;101777.91;;;7.13;94.96
53647;BME280;39550;52.230;5.194;2023-02-19T05:20:42;101831.81;;;7.39;95.24
53647;BME280;39550;52.230;5.194;2023-02-19T05:23:17;101852.72;;;7.50;94.82
53647;BME280;39550;52.230;5.194;2023-02-19T05:25:48;101832.50;;;7.35;94.89
53647;BME280;39550;52.230;5.194;2023-02-19T05:28:35;101824.81;;;7.35;95.25
53647;BME280;39550;52.230;5.194;2023-02-19T05:31:15;101812.59;;;7.28;95.09
53647;BME280;39550;52.230;5.194;2023-02-19T05:33:54;101821.25;;;7.30;94.74
53647;BME280;39550;52.230;5.194;2023-02-19T05:36:31;101856.03;;;7.47;95.34
53647;BME280;39550;52.230;5.194;2023-02-19T05:39:14;101835.06;;;7.35;94.70
53647;BME280;39550;52.230;5.194;2023-02-19T05:42:06;101837.78;;;7.38;94.81
53647;BME280;39550;52.230;5.194;2023-02-19T05:44:40;101851.75;;;7.46;95.24
53647;BME280;39550;52.230;5.194;2023-02-19T05:47:25;101838.59;;;7.37;94.96
53647;BME280;39550;52.230;5.194;2023-02-19T05:50:01;101852.56;;;7.45;95.23
53647;BME280;39550;52.230;5.194;2023-02-19T05:52:37;101831.50;;;7.30;94.98
53647;BME280;39550;52.230;5.194;2023-02-19T05:55:15;101840.09;;;7.32;94.72
53647;BME280;39550;52.230;5.194;2023-02-19T05:57:54;101841.50;;;7.24;95.39
53647;BME280;39550;52.230;5.194;2023-02-19T06:00:34;101853.88;;;7.34;94.99
53647;BME280;39550;52.230;5.194;2023-02-19T06:03:12;101874.84;;;7.46;95.12
53647;BME280;39550;52.230;5.194;2023-02-19T06:05:38;101872.28;;;7.46;95.44
53647;BME280;39550;52.230;5.194;2023-02-19T06:08:04;101874.84;;;7.46;94.63
53647;BME280;39550;52.230;5.194;2023-02-19T06:10:29;101871.34;;;7.44;94.42
53647;BME280;39550;52.230;5.194;2023-02-19T06:12:55;101895.34;;;7.46;94.99
53647;BME280;39550;52.230;5.194;2023-02-19T06:15:20;101901.25;;;7.44;94.60
53647;BME280;39550;52.230;5.194;2023-02-19T06:17:46;101902.09;;;7.44;94.62
53647;BME280;39550;52.230;5.194;2023-02-19T06:20:11;101910.59;;;7.43;94.71
53647;BME280;39550;52.230;5.194;2023-02-19T06:22:37;101911.50;;;7.44;95.09
53647;BME280;39550;52.230;5.194;2023-02-19T06:25:03;101921.75;;;7.44;94.60
53647;BME280;39550;52.230;5.194;2023-02-19T06:27:28;101919.25;;;7.45;94.75
53647;BME280;39550;52.230;5.194;2023-02-19T06:29:54;101921.00;;;7.46;94.19
53647;BME280;39550;52.230;5.194;2023-02-19T06:32:19;101914.13;;;7.45;94.16
53647;BME280;39550;52.230;5.194;2023-02-19T06:34:44;101915.72;;;7.43;94.89
53647;BME280;39550;52.230;5.194;2023-02-19T06:37:10;101913.16;;;7.43;95.24
53647;BME280;39550;52.230;5.194;2023-02-19T06:39:35;101920.88;;;7.43;95.06
53647;BME280;39550;52.230;5.194;2023-02-19T06:42:01;101926.00;;;7.43;94.62
53647;BME280;39550;52.230;5.194;2023-02-19T06:44:26;101931.97;;;7.42;95.06
53647;BME280;39550;52.230;5.194;2023-02-19T06:46:53;101934.59;;;7.44;94.96
53647;BME280;39550;52.230;5.194;2023-02-19T06:49:19;101935.38;;;7.43;94.56
53647;BME280;39550;52.230;5.194;2023-02-19T06:51:44;101941.38;;;7.43;94.38
53647;BME280;39550;52.230;5.194;2023-02-19T06:54:10;101947.34;;;7.42;94.86
53647;BME280;39550;52.230;5.194;2023-02-19T06:56:38;101946.44;;;7.42;94.52
53647;BME280;39550;52.230;5.194;2023-02-19T06:59:09;101954.19;;;7.43;94.38
53647;BME280;39550;52.230;5.194;2023-02-19T07:01:39;101960.16;;;7.42;94.94
53647;BME280;39550;52.230;5.194;2023-02-19T07:04:05;101956.75;;;7.43;94.25
53647;BME280;39550;52.230;5.194;2023-02-19T07:06:32;101967.81;;;7.41;95.23
53647;BME280;39550;52.230;5.194;2023-02-19T07:08:58;101970.44;;;7.42;94.67
53647;BME280;39550;52.230;5.194;2023-02-19T07:11:25;101979.03;;;7.44;94.32
53647;BME280;39550;52.230;5.194;2023-02-19T07:13:58;101982.41;;;7.43;94.54
53647;BME280;39550;52.230;5.194;2023-02-19T07:16:23;101983.31;;;7.44;95.03
53647;BME280;39550;52.230;5.194;2023-02-19T07:18:49;101984.91;;;7.42;94.20
53647;BME280;39550;52.230;5.194;2023-02-19T07:21:16;101998.69;;;7.44;94.96
53647;BME280;39550;52.230;5.194;2023-02-19T07:23:45;102006.38;;;7.44;94.95
53647;BME280;39550;52.230;5.194;2023-02-19T07:26:11;102001.22;;;7.42;94.38
53647;BME280;39550;52.230;5.194;2023-02-19T07:28:39;101999.50;;;7.43;94.29
53647;BME280;39550;52.230;5.194;2023-02-19T07:31:05;102005.50;;;7.43;94.61
53647;BME280;39550;52.230;5.194;2023-02-19T07:33:30;102014.09;;;7.44;94.47
53647;BME280;39550;52.230;5.194;2023-02-19T07:35:58;102014.09;;;7.44;94.40
53647;BME280;39550;52.230;5.194;2023-02-19T07:40:57;102014.94;;;7.44;94.16
53647;BME280;39550;52.230;5.194;2023-02-19T07:43:24;102014.09;;;7.44;93.76
53647;BME280;39550;52.230;5.194;2023-02-19T07:45:49;101995.59;;;7.30;94.36
53647;BME280;39550;52.230;5.194;2023-02-19T07:48:15;102025.25;;;7.46;94.20
53647;BME280;39550;52.230;5.194;2023-02-19T07:50:41;101956.94;;;7.04;94.17
53647;BME280;39550;52.230;5.194;2023-02-19T07:53:07;101979.59;;;7.14;94.21
53647;BME280;39550;52.230;5.194;2023-02-19T07:55:33;102008.34;;;7.28;94.08
53647;BME280;39550;52.230;5.194;2023-02-19T07:57:59;102036.84;;;7.36;94.53
53647;BME280;39550;52.230;5.194;2023-02-19T08:00:27;102039.72;;;7.44;94.34
53647;BME280;39550;52.230;5.194;2023-02-19T08:02:54;102023.78;;;7.30;94.19
53647;BME280;39550;52.230;5.194;2023-02-19T08:05:35;102003.66;;;7.18;94.11
53647;BME280;39550;52.230;5.194;2023-02-19T08:08:02;102047.38;;;7.42;94.76
53647;BME280;39550;52.230;5.194;2023-02-19T08:10:29;102015.78;;;7.22;94.14
53647;BME280;39550;52.230;5.194;2023-02-19T08:13:15;102010.91;;;7.07;93.97
53647;BME280;39550;52.230;5.194;2023-02-19T08:18:26;102071.25;;;7.41;94.20
53647;BME280;39550;52.230;5.194;2023-02-19T08:20:56;102068.63;;;7.40;94.38
53647;BME280;39550;52.230;5.194;2023-02-19T08:23:22;102017.03;;;7.11;94.13
53647;BME280;39550;52.230;5.194;2023-02-19T08:25:49;102066.00;;;7.38;94.23
53647;BME280;39550;52.230;5.194;2023-02-19T08:28:15;102087.50;;;7.42;94.11
53647;BME280;39550;52.230;5.194;2023-02-19T08:30:42;102080.56;;;7.39;94.32
53647;BME280;39550;52.230;5.194;2023-02-19T08:33:10;102100.38;;;7.43;94.31
53647;BME280;39550;52.230;5.194;2023-02-19T08:35:36;102101.91;;;7.38;94.22
53647;BME280;39550;52.230;5.194;2023-02-19T08:38:03;102079.50;;;7.34;93.80
53647;BME280;39550;52.230;5.194;2023-02-19T08:40:28;102091.66;;;7.38;94.16
53647;BME280;39550;52.230;5.194;2023-02-19T08:42:54;102080.78;;;7.23;93.97
53647;BME280;39550;52.230;5.194;2023-02-19T08:45:19;102117.53;;;7.44;94.54
53647;BME280;39550;52.230;5.194;2023-02-19T08:47:45;102106.34;;;7.42;93.64
53647;BME280;39550;52.230;5.194;2023-02-19T08:50:10;102079.63;;;7.37;94.24
53647;BME280;39550;52.230;5.194;2023-02-19T08:52:36;102087.31;;;7.37;94.43
53647;BME280;39550;52.230;5.194;2023-02-19T08:55:02;102039.94;;;7.06;93.95
53647;BME280;39550;52.230;5.194;2023-02-19T08:57:28;102037.34;;;7.06;93.94
53647;BME280;39550;52.230;5.194;2023-02-19T08:59:56;102113.31;;;7.45;93.80
53647;BME280;39550;52.230;5.194;2023-02-19T09:02:25;102108.22;;;7.46;93.89
53647;BME280;39550;52.230;5.194;2023-02-19T09:04:50;102077.88;;;7.36;93.99
53647;BME280;39550;52.230;5.194;2023-02-19T09:07:16;102104.97;;;7.50;93.38
53647;BME280;39550;52.230;5.194;2023-02-19T09:09:42;102111.78;;;7.50;93.77
53647;BME280;39550;52.230;5.194;2023-02-19T09:12:09;102112.53;;;7.47;93.46
53647;BME280;39550;52.230;5.194;2023-02-19T09:14:35;102042.50;;;7.06;93.83
53647;BME280;39550;52.230;5.194;2023-02-19T09:17:02;102047.66;;;7.08;93.61
53647;BME280;39550;52.230;5.194;2023-02-19T09:19:28;102120.44;;;7.52;93.81
53647;BME280;39550;52.230;5.194;2023-02-19T09:21:53;102106.13;;;7.38;93.73
53647;BME280;39550;52.230;5.194;2023-02-19T09:24:19;102119.28;;;7.45;93.82
53647;BME280;39550;52.230;5.194;2023-02-19T09:26:47;102133.19;;;7.50;93.54
53647;BME280;39550;52.230;5.194;2023-02-19T09:29:13;102152.06;;;7.53;93.20
53647;BME280;39550;52.230;5.194;2023-02-19T09:31:39;102140.50;;;7.41;93.24
53647;BME280;39550;52.230;5.194;2023-02-19T09:34:05;102148.13;;;7.40;93.77
53647;BME280;39550;52.230;5.194;2023-02-19T09:36:30;102128.84;;;7.28;93.71
53647;BME280;39550;52.230;5.194;2023-02-19T09:38:58;102133.91;;;7.27;93.72
53647;BME280;39550;52.230;5.194;2023-02-19T09:41:33;102182.59;;;7.46;93.57
53647;BME280;39550;52.230;5.194;2023-02-19T09:44:01;102208.38;;;7.49;93.35
53647;BME280;39550;52.230;5.194;2023-02-19T09:46:50;102197.16;;;7.47;94.05
53647;BME280;39550;52.230;5.194;2023-02-19T09:52:07;102204.31;;;7.35;93.59
53647;BME280;39550;52.230;5.194;2023-02-19T09:54:36;102216.47;;;7.39;93.77
53647;BME280;39550;52.230;5.194;2023-02-19T09:57:03;102195.59;;;7.30;93.98
53647;BME280;39550;52.230;5.194;2023-02-19T09:59:39;102192.19;;;7.31;93.83
53647;BME280;39550;52.230;5.194;2023-02-19T10:02:14;102239.16;;;7.49;94.02
53647;BME280;39550;52.230;5.194;2023-02-19T10:04:42;102219.88;;;7.38;94.07
53647;BME280;39550;52.230;5.194;2023-02-19T10:07:20;102216.47;;;7.39;93.37
53647;BME280;39550;52.230;5.194;2023-02-19T10:09:56;102209.09;;;7.26;93.92
53647;BME280;39550;52.230;5.194;2023-02-19T10:12:30;102254.69;;;7.53;93.17
53647;BME280;39550;52.230;5.194;2023-02-19T10:15:04;102266.63;;;7.52;93.23
53647;BME280;39550;52.230;5.194;2023-02-19T10:17:33;102191.94;;;7.05;93.46
53647;BME280;39550;52.230;5.194;2023-02-19T10:19:59;102260.06;;;7.39;93.72
53647;BME280;39550;52.230;5.194;2023-02-19T10:22:24;102268.06;;;7.45;93.58
53647;BME280;39550;52.230;5.194;2023-02-19T10:24:54;102238.63;;;7.18;93.79
53647;BME280;39550;52.230;5.194;2023-02-19T10:27:20;102277.28;;;7.42;93.42
53647;BME280;39550;52.230;5.194;2023-02-19T10:29:48;102289.38;;;7.44;93.89
53647;BME280;39550;52.230;5.194;2023-02-19T10:32:22;102289.78;;;7.34;94.38
53647;BME280;39550;52.230;5.194;2023-02-19T10:35:08;102305.44;;;7.40;93.59
53647;BME280;39550;52.230;5.194;2023-02-19T10:37:34;102275.75;;;7.26;93.87
53647;BME280;39550;52.230;5.194;2023-02-19T10:40:01;102252.66;;;7.06;94.22
53647;BME280;39550;52.230;5.194;2023-02-19T10:42:26;102305.31;;;7.37;93.77
53647;BME280;39550;52.230;5.194;2023-02-19T10:44:57;102292.97;;;7.28;94.36
53647;BME280;39550;52.230;5.194;2023-02-19T10:47:28;102277.34;;;7.24;94.24
53647;BME280;39550;52.230;5.194;2023-02-19T10:49:58;102294.91;;;7.34;93.57
53647;BME280;39550;52.230;5.194;2023-02-19T10:52:27;102283.44;;;7.26;94.38
53647;BME280;39550;52.230;5.194;2023-02-19T10:54:57;102306.34;;;7.41;93.79
53647;BME280;39550;52.230;5.194;2023-02-19T10:57:37;102298.53;;;7.39;93.71
53647;BME280;39550;52.230;5.194;2023-02-19T11:00:26;102281.50;;;7.40;94.20
53647;BME280;39550;52.230;5.194;2023-02-19T11:03:19;102285.72;;;7.39;93.62
53647;BME280;39550;52.230;5.194;2023-02-19T11:06:06;102287.91;;;7.30;93.60
53647;BME280;39550;52.230;5.194;2023-02-19T11:08:53;102301.19;;;7.41;94.30
53647;BME280;39550;52.230;5.194;2023-02-19T11:11:31;102281.00;;;7.29;94.00
53647;BME280;39550;52.230;5.194;2023-02-19T11:14:00;102317.38;;;7.40;93.68
53647;BME280;39550;52.230;5.194;2023-02-19T11:16:45;102313.81;;;7.36;94.02
53647;BME280;39550;52.230;5.194;2023-02-19T11:19:37;102303.41;;;7.33;93.48
53647;BME280;39550;52.230;5.194;2023-02-19T11:24:50;102320.03;;;7.41;93.47
53647;BME280;39550;52.230;5.194;2023-02-19T11:27:18;102292.72;;;7.24;93.43
53647;BME280;39550;52.230;5.194;2023-02-19T11:29:45;102294.63;;;7.28;93.16
53647;BME280;39550;52.230;5.194;2023-02-19T11:34:46;102311.91;;;7.32;93.03
53647;BME280;39550;52.230;5.194;2023-02-19T11:37:14;102335.53;;;7.44;92.90
53647;BME280;39550;52.230;5.194;2023-02-19T11:39:42;102331.22;;;7.43;93.16
53647;BME280;39550;52.230;5.194;2023-02-19T11:53:31;102284.13;;;7.22;92.69
53647;BME280;39550;52.230;5.194;2023-02-19T11:56:05;102325.34;;;7.46;93.25
53647;BME280;39550;52.230;5.194;2023-02-19T12:28:54;102328.75;;;7.27;91.19
53647;BME280;39550;52.230;5.194;2023-02-19T12:34:28;102344.88;;;7.42;91.47
53647;BME280;39550;52.230;5.194;2023-02-19T12:37:31;102360.25;;;7.42;91.74
53647;BME280;39550;52.230;5.194;2023-02-19T12:45:18;102363.69;;;7.43;92.20
53647;BME280;39550;52.230;5.194;2023-02-19T12:47:54;102367.22;;;7.45;91.51
53647;BME280;39550;52.230;5.194;2023-02-19T12:50:24;102374.16;;;7.47;91.43
53647;BME280;39550;52.230;5.194;2023-02-19T12:53:22;102361.00;;;7.40;91.72
53647;BME280;39550;52.230;5.194;2023-02-19T12:55:45;102389.69;;;7.50;91.46
53647;BME280;39550;52.230;5.194;2023-02-19T12:58:24;102390.56;;;7.51;91.53
53647;BME280;39550;52.230;5.194;2023-02-19T13:00:56;102362.75;;;7.41;91.52
53647;BME280;39550;52.230;5.194;2023-02-19T13:06:05;102391.72;;;7.58;91.44
53647;BME280;39550;52.230;5.194;2023-02-19T13:08:41;102407.00;;;7.55;90.89
53647;BME280;39550;52.230;5.194;2023-02-19T13:11:28;102383.84;;;7.35;91.25
53647;BME280;39550;52.230;5.194;2023-02-19T13:14:11;102398.56;;;7.39;91.51
53647;BME280;39550;52.230;5.194;2023-02-19T13:16:41;102355.19;;;7.06;90.68
53647;BME280;39550;52.230;5.194;2023-02-19T13:19:09;102408.13;;;7.24;91.14
53647;BME280;39550;52.230;5.194;2023-02-19T13:21:39;102406.72;;;7.12;90.68
53647;BME280;39550;52.230;5.194;2023-02-19T13:24:31;102398.78;;;7.06;90.62
53647;BME280;39550;52.230;5.194;2023-02-19T13:27:10;102364.56;;;6.88;90.44
53647;BME280;39550;52.230;5.194;2023-02-19T13:29:45;102425.91;;;7.21;90.26
53647;BME280;39550;52.230;5.194;2023-02-19T13:32:41;102434.41;;;7.20;90.59
53647;BME280;39550;52.230;5.194;2023-02-19T13:35:55;102432.81;;;7.22;90.31
53647;BME280;39550;52.230;5.194;2023-02-19T13:38:16;102405.88;;;7.12;89.98
53647;BME280;39550;52.230;5.194;2023-02-19T13:40:57;102436.44;;;7.27;90.11
53647;BME280;39550;52.230;5.194;2023-02-19T13:43:26;102390.19;;;6.88;89.43
53647;BME280;39550;52.230;5.194;2023-02-19T13:45:58;102404.38;;;6.99;89.39
53647;BME280;39550;52.230;5.194;2023-02-19T13:48:37;102379.78;;;6.85;89.99
53647;BME280;39550;52.230;5.194;2023-02-19T14:04:42;102415.16;;;6.92;87.10
53647;BME280;39550;52.230;5.194;2023-02-19T14:14:41;102401.59;;;6.76;86.50
53647;BME280;39550;52.230;5.194;2023-02-19T14:25:33;102419.94;;;7.02;86.17
53647;BME280;39550;52.230;5.194;2023-02-19T14:30:42;102417.84;;;7.13;86.16
53647;BME280;39550;52.230;5.194;2023-02-19T14:33:14;102426.31;;;7.10;86.59
53647;BME280;39550;52.230;5.194;2023-02-19T14:35:43;102414.22;;;7.08;85.65
53647;BME280;39550;52.230;5.194;2023-02-19T14:38:19;102392.41;;;6.98;86.08
53647;BME280;39550;52.230;5.194;2023-02-19T14:40:46;102385.38;;;6.94;85.49
53647;BME280;39550;52.230;5.194;2023-02-19T14:43:19;102339.19;;;6.74;85.95
53647;BME280;39550;52.230;5.194;2023-02-19T14:45:52;102382.28;;;7.01;87.03
53647;BME280;39550;52.230;5.194;2023-02-19T14:48:31;102342.16;;;6.84;86.17
53647;BME280;39550;52.230;5.194;2023-02-19T14:51:07;102379.50;;;6.96;85.62
53647;BME280;39550;52.230;5.194;2023-02-19T14:53:38;102385.50;;;6.97;85.41
53647;BME280;39550;52.230;5.194;2023-02-19T14:56:17;102367.78;;;6.84;85.77
53647;BME280;39550;52.230;5.194;2023-02-19T14:58:43;102376.44;;;6.86;85.30
53647;BME280;39550;52.230;5.194;2023-02-19T15:01:38;102408.06;;;7.04;85.80
53647;BME280;39550;52.230;5.194;2023-02-19T15:04:05;102403.91;;;7.06;86.41
53647;BME280;39550;52.230;5.194;2023-02-19T15:06:32;102366.19;;;6.86;85.80
53647;BME280;39550;52.230;5.194;2023-02-19T15:09:04;102329.41;;;6.67;86.48
53647;BME280;39550;52.230;5.194;2023-02-19T15:11:32;102339.53;;;6.64;86.17
53647;BME280;39550;52.230;5.194;2023-02-19T15:14:04;102423.44;;;7.04;86.20
53647;BME280;39550;52.230;5.194;2023-02-19T15:16:32;102394.00;;;6.78;86.42
53647;BME280;39550;52.230;5.194;2023-02-19T15:19:00;102360.31;;;6.52;86.22
53647;BME280;39550;52.230;5.194;2023-02-19T15:21:33;102416.97;;;6.76;86.18
53647;BME280;39550;52.230;5.194;2023-02-19T15:24:03;102424.59;;;6.75;86.13
53647;BME280;39550;52.230;5.194;2023-02-19T15:26:40;102379.75;;;6.48;86.21
53647;BME280;39550;52.230;5.194;2023-02-19T15:29:15;102437.47;;;6.76;86.31
53647;BME280;39550;52.230;5.194;2023-02-19T15:31:54;102438.78;;;6.68;86.76
53647;BME280;39550;52.230;5.194;2023-02-19T15:34:28;102435.41;;;6.69;86.61
53647;BME280;39550;52.230;5.194;2023-02-19T15:37:05;102396.00;;;6.49;86.64
53647;BME280;39550;52.230;5.194;2023-02-19T15:39:38;102445.22;;;6.78;86.75
53647;BME280;39550;52.230;5.194;2023-02-19T15:42:05;102419.91;;;6.66;86.76
53647;BME280;39550;52.230;5.194;2023-02-19T15:44:52;102447.94;;;6.81;86.63